createdAt,value
2023-02-15T00:00:00.285Z,237.99
2023-02-15T00:00:10.251Z,237.49
2023-02-15T00:00:20.274Z,237.06
2023-02-15T00:00:30.279Z,235.58
2023-02-15T00:00:40.245Z,234.72
2023-02-15T00:00:50.229Z,234.63
2023-02-15T00:01:00.242Z,234.65
2023-02-15T00:01:10.248Z,235.00
2023-02-15T00:01:20.233Z,233.58
2023-02-15T00:01:30.258Z,234.17
2023-02-15T00:01:40.316Z,233.53
2023-02-15T00:01:50.323Z,233.95
2023-02-15T00:02:00.267Z,234.70
2023-02-15T00:02:10.281Z,233.95
2023-02-15T00:02:20.246Z,234.44
2023-02-15T00:02:30.220Z,234.60
2023-02-15T00:02:40.253Z,235.20
2023-02-15T00:02:50.277Z,235.23
2023-02-15T00:03:00.318Z,234.40
2023-02-15T00:03:10.254Z,234.31
2023-02-15T00:03:20.265Z,231.79
2023-02-15T00:03:30.230Z,233.67
2023-02-15T00:03:40.344Z,232.67
2023-02-15T00:03:50.230Z,233.01
2023-02-15T00:04:00.222Z,231.92
2023-02-15T00:04:10.247Z,232.19
2023-02-15T00:04:20.228Z,231.76
2023-02-15T00:04:30.244Z,230.38
2023-02-15T00:04:40.239Z,230.96
2023-02-15T00:04:50.238Z,230.12
2023-02-15T00:05:00.242Z,231.06
2023-02-15T00:05:10.257Z,230.94
2023-02-15T00:05:20.226Z,229.86
2023-02-15T00:05:30.234Z,232.84
2023-02-15T00:05:40.244Z,234.36
2023-02-15T00:05:50.236Z,234.42
2023-02-15T00:06:00.428Z,233.31
2023-02-15T00:06:10.245Z,234.36
2023-02-15T00:06:20.229Z,233.11
2023-02-15T00:06:30.241Z,233.07
2023-02-15T00:06:40.231Z,233.55
2023-02-15T00:06:50.229Z,232.83
2023-02-15T00:07:00.226Z,232.71
2023-02-15T00:07:10.215Z,232.85
2023-02-15T00:07:20.233Z,232.58
2023-02-15T00:07:30.228Z,231.73
2023-02-15T00:07:40.217Z,232.78
2023-02-15T00:07:50.215Z,232.27
2023-02-15T00:08:00.209Z,232.01
2023-02-15T00:08:10.218Z,231.38
2023-02-15T00:08:20.222Z,229.88
2023-02-15T00:08:30.227Z,231.37
2023-02-15T00:08:40.230Z,231.99
2023-02-15T00:08:50.307Z,231.42
2023-02-15T00:09:00.241Z,231.02
2023-02-15T00:09:10.216Z,231.40
2023-02-15T00:09:20.219Z,232.06
2023-02-15T00:09:30.220Z,232.55
2023-02-15T00:09:40.208Z,229.57
2023-02-15T00:09:50.214Z,230.64
2023-02-15T00:10:00.208Z,230.80
2023-02-15T00:10:10.246Z,230.96
2023-02-15T00:10:20.220Z,229.52
2023-02-15T00:10:30.213Z,230.62
2023-02-15T00:10:40.213Z,232.27
2023-02-15T00:10:50.218Z,230.38
2023-02-15T00:11:00.224Z,229.94
2023-02-15T00:11:10.216Z,232.52
2023-02-15T00:11:20.220Z,234.27
2023-02-15T00:11:30.226Z,234.13
2023-02-15T00:11:40.196Z,234.27
2023-02-15T00:11:50.188Z,234.62
2023-02-15T00:12:00.200Z,234.40
2023-02-15T00:12:10.210Z,233.13
2023-02-15T00:12:20.207Z,234.56
2023-02-15T00:12:30.200Z,232.72
2023-02-15T00:12:40.219Z,234.02
2023-02-15T00:12:50.189Z,235.26
2023-02-15T00:13:00.191Z,235.91
2023-02-15T00:13:10.200Z,235.18
2023-02-15T00:13:20.204Z,234.88
2023-02-15T00:13:30.194Z,233.74
2023-02-15T00:13:40.196Z,234.46
2023-02-15T00:13:50.203Z,234.79
2023-02-15T00:14:00.249Z,233.60
2023-02-15T00:14:10.207Z,232.75
2023-02-15T00:14:20.199Z,230.75
2023-02-15T00:14:30.194Z,230.33
2023-02-15T00:14:40.210Z,230.54
2023-02-15T00:14:50.195Z,231.58
2023-02-15T00:15:00.196Z,232.63
2023-02-15T00:15:10.206Z,231.24
2023-02-15T00:15:20.198Z,230.65
2023-02-15T00:15:30.196Z,231.60
2023-02-15T00:15:40.194Z,233.19
2023-02-15T00:15:50.190Z,231.71
2023-02-15T00:16:00.509Z,230.77
2023-02-15T00:16:10.222Z,230.66
2023-02-15T00:16:20.212Z,231.22
2023-02-15T00:16:30.261Z,231.15
2023-02-15T00:16:40.206Z,232.92
2023-02-15T00:16:50.201Z,234.37
2023-02-15T00:17:00.193Z,235.90
2023-02-15T00:17:10.203Z,233.51
2023-02-15T00:17:20.194Z,234.80
2023-02-15T00:17:30.204Z,234.50
2023-02-15T00:17:40.198Z,233.86
2023-02-15T00:17:50.203Z,232.67
2023-02-15T00:18:00.202Z,231.89
2023-02-15T00:18:10.199Z,229.36
2023-02-15T00:18:20.196Z,230.13
2023-02-15T00:18:30.206Z,231.99
2023-02-15T00:18:40.196Z,232.62
2023-02-15T00:18:50.210Z,232.80
2023-02-15T00:19:00.172Z,234.46
2023-02-15T00:19:10.223Z,234.82
2023-02-15T00:19:20.183Z,234.47
2023-02-15T00:19:30.175Z,232.10
2023-02-15T00:19:40.193Z,234.32
2023-02-15T00:19:50.169Z,235.29
2023-02-15T00:20:00.162Z,235.42
2023-02-15T00:20:10.169Z,234.12
2023-02-15T00:20:20.169Z,237.19
2023-02-15T00:20:30.180Z,238.43
2023-02-15T00:20:40.164Z,238.61
2023-02-15T00:20:50.180Z,237.21
2023-02-15T00:21:00.169Z,235.96
2023-02-15T00:21:10.165Z,235.42
2023-02-15T00:21:20.174Z,236.02
2023-02-15T00:21:30.169Z,235.18
2023-02-15T00:21:40.163Z,236.03
2023-02-15T00:21:50.168Z,233.09
2023-02-15T00:22:00.167Z,231.66
2023-02-15T00:22:10.173Z,233.29
2023-02-15T00:22:20.168Z,230.57
2023-02-15T00:22:30.189Z,231.09
2023-02-15T00:22:40.182Z,229.80
2023-02-15T00:22:50.182Z,231.01
2023-02-15T00:23:00.182Z,232.75
2023-02-15T00:23:10.156Z,232.62
2023-02-15T00:23:20.197Z,231.14
2023-02-15T00:23:30.194Z,228.55
2023-02-15T00:23:40.198Z,230.84
2023-02-15T00:23:50.213Z,230.15
2023-02-15T00:24:00.248Z,231.95
2023-02-15T00:24:10.292Z,231.44
2023-02-15T00:24:20.258Z,231.51
2023-02-15T00:24:30.259Z,229.65
2023-02-15T00:24:40.259Z,229.80
2023-02-15T00:24:50.267Z,228.60
2023-02-15T00:25:00.277Z,228.35
2023-02-15T00:25:10.270Z,226.10
2023-02-15T00:25:20.293Z,226.33
2023-02-15T00:25:30.292Z,224.54
2023-02-15T00:25:40.289Z,221.51
2023-02-15T00:25:50.313Z,225.57
2023-02-15T00:26:00.726Z,224.09
2023-02-15T00:26:10.319Z,224.95
2023-02-15T00:26:20.337Z,222.60
2023-02-15T00:26:30.330Z,223.97
2023-02-15T00:26:40.314Z,226.12
2023-02-15T00:26:50.336Z,225.87
2023-02-15T00:27:00.323Z,227.99
2023-02-15T00:27:10.381Z,227.66
2023-02-15T00:27:20.312Z,228.01
2023-02-15T00:27:30.308Z,227.79
2023-02-15T00:27:40.312Z,227.61
2023-02-15T00:27:50.330Z,227.16
2023-02-15T00:28:00.322Z,225.85
2023-02-15T00:28:10.339Z,226.17
2023-02-15T00:28:20.326Z,224.62
2023-02-15T00:28:30.321Z,224.84
2023-02-15T00:28:40.326Z,223.56
2023-02-15T00:28:50.328Z,222.36
2023-02-15T00:29:00.325Z,220.63
2023-02-15T00:29:10.359Z,220.04
2023-02-15T00:29:20.317Z,220.27
2023-02-15T00:29:30.305Z,219.26
2023-02-15T00:29:40.325Z,220.47
2023-02-15T00:29:50.366Z,217.18
2023-02-15T00:30:00.341Z,217.33
2023-02-15T00:30:10.339Z,217.95
2023-02-15T00:30:20.365Z,217.87
2023-02-15T00:30:30.479Z,217.59
2023-02-15T00:30:40.354Z,217.81
2023-02-15T00:30:50.382Z,217.17
2023-02-15T00:31:00.454Z,218.93
2023-02-15T00:31:10.415Z,220.21
2023-02-15T00:31:20.393Z,219.91
2023-02-15T00:31:30.418Z,220.33
2023-02-15T00:31:40.388Z,220.29
2023-02-15T00:31:50.398Z,220.16
2023-02-15T00:32:00.339Z,220.17
2023-02-15T00:32:10.323Z,221.52
2023-02-15T00:32:20.334Z,221.95
2023-02-15T00:32:30.336Z,221.70
2023-02-15T00:32:40.334Z,222.54
2023-02-15T00:32:50.367Z,222.12
2023-02-15T00:33:00.374Z,222.29
2023-02-15T00:33:10.379Z,222.76
2023-02-15T00:33:20.396Z,223.09
2023-02-15T00:33:30.396Z,222.44
2023-02-15T00:33:40.396Z,222.36
2023-02-15T00:33:50.408Z,221.24
2023-02-15T00:34:00.411Z,221.70
2023-02-15T00:34:10.455Z,221.36
2023-02-15T00:34:20.433Z,220.74
2023-02-15T00:34:30.470Z,219.89
2023-02-15T00:34:40.436Z,219.61
2023-02-15T00:34:50.469Z,219.60
2023-02-15T00:35:00.466Z,219.53
2023-02-15T00:35:10.473Z,219.23
2023-02-15T00:35:20.495Z,219.33
2023-02-15T00:35:30.495Z,219.90
2023-02-15T00:35:40.496Z,221.14
2023-02-15T00:35:50.517Z,224.52
2023-02-15T00:36:00.858Z,227.39
2023-02-15T00:36:10.510Z,229.67
2023-02-15T00:36:20.515Z,231.11
2023-02-15T00:36:30.532Z,231.78
2023-02-15T00:36:40.508Z,232.21
2023-02-15T00:36:50.503Z,231.36
2023-02-15T00:37:00.533Z,230.42
2023-02-15T00:37:10.526Z,230.09
2023-02-15T00:37:20.527Z,230.18
2023-02-15T00:37:30.556Z,228.98
2023-02-15T00:37:40.525Z,228.61
2023-02-15T00:37:50.539Z,227.66
2023-02-15T00:38:00.519Z,226.05
2023-02-15T00:38:10.517Z,225.90
2023-02-15T00:38:20.523Z,224.65
2023-02-15T00:38:30.533Z,223.77
2023-02-15T00:38:40.509Z,223.04
2023-02-15T00:38:50.534Z,222.37
2023-02-15T00:39:00.534Z,221.66
2023-02-15T00:39:10.597Z,221.11
2023-02-15T00:39:20.515Z,220.39
2023-02-15T00:39:30.528Z,219.57
2023-02-15T00:39:40.512Z,219.69
2023-02-15T00:39:50.519Z,219.44
2023-02-15T00:40:00.533Z,220.46
2023-02-15T00:40:10.517Z,221.15
2023-02-15T00:40:20.512Z,221.79
2023-02-15T00:40:30.547Z,222.51
2023-02-15T00:40:40.496Z,223.32
2023-02-15T00:40:50.500Z,224.32
2023-02-15T00:41:00.497Z,224.05
2023-02-15T00:41:10.532Z,224.13
2023-02-15T00:41:20.499Z,223.94
2023-02-15T00:41:30.479Z,223.35
2023-02-15T00:41:40.502Z,223.61
2023-02-15T00:41:50.488Z,223.43
2023-02-15T00:42:00.514Z,223.16
2023-02-15T00:42:10.495Z,223.23
2023-02-15T00:42:20.542Z,222.93
2023-02-15T00:42:30.541Z,222.86
2023-02-15T00:42:40.510Z,223.25
2023-02-15T00:42:50.553Z,223.94
2023-02-15T00:43:00.546Z,224.05
2023-02-15T00:43:10.539Z,224.17
2023-02-15T00:43:20.579Z,226.09
2023-02-15T00:43:30.577Z,227.73
2023-02-15T00:43:40.597Z,229.25
2023-02-15T00:43:50.593Z,231.06
2023-02-15T00:44:00.593Z,234.00
2023-02-15T00:44:10.610Z,234.83
2023-02-15T00:44:20.689Z,234.97
2023-02-15T00:44:30.619Z,235.48
2023-02-15T00:44:40.611Z,235.52
2023-02-15T00:44:50.674Z,235.33
2023-02-15T00:45:00.656Z,235.66
2023-02-15T00:45:10.660Z,235.34
2023-02-15T00:45:20.669Z,234.72
2023-02-15T00:45:30.684Z,234.12
2023-02-15T00:45:40.702Z,232.79
2023-02-15T00:45:50.758Z,232.16
2023-02-15T00:46:01.077Z,230.50
2023-02-15T00:46:10.711Z,228.92
2023-02-15T00:46:20.769Z,228.35
2023-02-15T00:46:30.705Z,227.09
2023-02-15T00:46:40.700Z,226.26
2023-02-15T00:46:50.699Z,225.46
2023-02-15T00:47:00.698Z,224.49
2023-02-15T00:47:10.686Z,224.21
2023-02-15T00:47:20.693Z,224.21
2023-02-15T00:47:30.700Z,223.53
2023-02-15T00:47:40.688Z,223.84
2023-02-15T00:47:50.704Z,223.21
2023-02-15T00:48:00.698Z,223.53
2023-02-15T00:48:10.705Z,223.19
2023-02-15T00:48:20.705Z,223.29
2023-02-15T00:48:30.700Z,222.80
2023-02-15T00:48:40.683Z,222.91
2023-02-15T00:48:50.700Z,223.12
2023-02-15T00:49:00.707Z,222.99
2023-02-15T00:49:10.705Z,223.50
2023-02-15T00:49:20.688Z,224.70
2023-02-15T00:49:30.724Z,225.72
2023-02-15T00:49:40.697Z,226.45
2023-02-15T00:49:50.712Z,227.28
2023-02-15T00:50:00.701Z,227.28
2023-02-15T00:50:10.694Z,226.39
2023-02-15T00:50:22.875Z,225.98
2023-02-15T00:50:30.730Z,228.61
2023-02-15T00:50:40.707Z,228.12
2023-02-15T00:50:50.724Z,227.28
2023-02-15T00:51:00.731Z,226.16
2023-02-15T00:51:10.705Z,225.53
2023-02-15T00:51:20.716Z,225.07
2023-02-15T00:51:30.733Z,224.95
2023-02-15T00:51:40.716Z,224.81
2023-02-15T00:51:50.714Z,224.22
2023-02-15T00:52:00.769Z,224.94
2023-02-15T00:52:10.727Z,224.23
2023-02-15T00:52:20.725Z,223.77
2023-02-15T00:52:30.712Z,224.12
2023-02-15T00:52:40.720Z,224.09
2023-02-15T00:52:50.693Z,223.66
2023-02-15T00:53:00.694Z,223.34
2023-02-15T00:53:10.694Z,222.70
2023-02-15T00:53:20.696Z,222.17
2023-02-15T00:53:30.714Z,220.97
2023-02-15T00:53:40.690Z,221.35
2023-02-15T00:53:50.702Z,221.91
2023-02-15T00:54:00.707Z,223.46
2023-02-15T00:54:10.690Z,224.68
2023-02-15T00:54:20.706Z,226.02
2023-02-15T00:54:30.755Z,226.43
2023-02-15T00:54:40.696Z,226.98
2023-02-15T00:54:50.695Z,227.32
2023-02-15T00:55:00.715Z,227.20
2023-02-15T00:55:10.693Z,226.95
2023-02-15T00:55:20.698Z,225.86
2023-02-15T00:55:30.694Z,223.99
2023-02-15T00:55:40.684Z,222.80
2023-02-15T00:55:50.693Z,222.28
2023-02-15T00:56:01.016Z,220.92
2023-02-15T00:56:10.698Z,220.62
2023-02-15T00:56:20.710Z,220.78
2023-02-15T00:56:30.694Z,220.88
2023-02-15T00:56:40.698Z,221.54
2023-02-15T00:56:50.699Z,221.06
2023-02-15T00:57:00.705Z,220.94
2023-02-15T00:57:10.693Z,220.32
2023-02-15T00:57:20.697Z,219.65
2023-02-15T00:57:30.693Z,218.50
2023-02-15T00:57:40.705Z,218.93
2023-02-15T00:57:50.683Z,218.34
2023-02-15T00:58:00.721Z,217.43
2023-02-15T00:58:10.700Z,217.54
2023-02-15T00:58:20.694Z,218.27
2023-02-15T00:58:30.689Z,219.33
2023-02-15T00:58:40.695Z,219.13
2023-02-15T00:58:50.688Z,219.94
2023-02-15T00:59:00.701Z,221.06
2023-02-15T00:59:10.709Z,222.31
2023-02-15T00:59:20.694Z,223.23
2023-02-15T00:59:30.708Z,223.69
2023-02-15T00:59:40.743Z,224.47
2023-02-15T00:59:50.697Z,224.45
2023-02-15T01:00:00.680Z,224.51
2023-02-15T01:00:10.684Z,223.80
2023-02-15T01:00:20.682Z,223.64
2023-02-15T01:00:30.668Z,224.00
2023-02-15T01:00:40.682Z,224.47
2023-02-15T01:00:50.698Z,224.28
2023-02-15T01:01:00.682Z,224.32
2023-02-15T01:01:10.728Z,224.57
2023-02-15T01:01:20.744Z,225.44
2023-02-15T01:01:30.730Z,225.42
2023-02-15T01:01:40.671Z,225.72
2023-02-15T01:01:50.684Z,225.72
2023-02-15T01:02:00.681Z,226.07
2023-02-15T01:02:10.678Z,225.52
2023-02-15T01:02:20.681Z,227.06
2023-02-15T01:02:30.663Z,228.28
2023-02-15T01:02:40.668Z,228.38
2023-02-15T01:02:50.683Z,228.28
2023-02-15T01:03:00.683Z,228.70
2023-02-15T01:03:10.678Z,229.00
2023-02-15T01:03:20.689Z,230.02
2023-02-15T01:03:30.668Z,230.07
2023-02-15T01:03:40.669Z,230.63
2023-02-15T01:03:50.680Z,232.18
2023-02-15T01:04:00.755Z,232.37
2023-02-15T01:04:10.747Z,231.55
2023-02-15T01:04:20.723Z,230.21
2023-02-15T01:04:30.776Z,229.97
2023-02-15T01:04:40.816Z,229.69
2023-02-15T01:04:50.754Z,230.35
2023-02-15T01:05:00.766Z,230.48
2023-02-15T01:05:10.763Z,229.51
2023-02-15T01:05:20.764Z,229.80
2023-02-15T01:05:30.786Z,228.91
2023-02-15T01:05:40.794Z,228.58
2023-02-15T01:05:50.781Z,227.95
2023-02-15T01:06:00.987Z,227.35
2023-02-15T01:06:10.799Z,227.22
2023-02-15T01:06:20.810Z,227.11
2023-02-15T01:06:30.793Z,226.28
2023-02-15T01:06:40.833Z,226.64
2023-02-15T01:06:50.801Z,226.16
2023-02-15T01:07:00.793Z,227.01
2023-02-15T01:07:10.796Z,227.42
2023-02-15T01:07:20.810Z,226.84
2023-02-15T01:07:30.798Z,226.83
2023-02-15T01:07:40.799Z,225.90
2023-02-15T01:07:52.519Z,224.87
2023-02-15T01:08:00.794Z,224.87
2023-02-15T01:08:10.796Z,224.89
2023-02-15T01:08:20.794Z,224.90
2023-02-15T01:08:30.788Z,224.91
2023-02-15T01:08:40.800Z,224.91
2023-02-15T01:08:50.794Z,224.87
2023-02-15T01:09:00.797Z,224.91
2023-02-15T01:09:10.793Z,224.91
2023-02-15T01:09:20.791Z,224.46
2023-02-15T01:09:30.792Z,224.34
2023-02-15T01:09:40.784Z,224.26
2023-02-15T01:09:50.862Z,224.37
2023-02-15T01:10:00.794Z,224.27
2023-02-15T01:10:10.781Z,224.85
2023-02-15T01:10:20.777Z,224.88
2023-02-15T01:10:30.779Z,224.83
2023-02-15T01:10:40.801Z,224.46
2023-02-15T01:10:50.779Z,223.83
2023-02-15T01:11:00.781Z,223.38
2023-02-15T01:11:10.769Z,223.46
2023-02-15T01:11:20.770Z,224.99
2023-02-15T01:11:30.784Z,226.50
2023-02-15T01:11:40.785Z,227.32
2023-02-15T01:11:50.775Z,227.98
2023-02-15T01:12:00.775Z,228.97
2023-02-15T01:12:10.782Z,228.55
2023-02-15T01:12:20.820Z,228.73
2023-02-15T01:12:30.792Z,229.45
2023-02-15T01:12:40.787Z,229.06
2023-02-15T01:12:50.784Z,229.05
2023-02-15T01:13:00.774Z,229.25
2023-02-15T01:13:10.781Z,229.77
2023-02-15T01:13:20.776Z,229.94
2023-02-15T01:13:30.772Z,230.34
2023-02-15T01:13:40.787Z,230.61
2023-02-15T01:13:50.794Z,231.30
2023-02-15T01:14:00.783Z,231.01
2023-02-15T01:14:10.796Z,232.70
2023-02-15T01:14:20.783Z,234.20
2023-02-15T01:14:30.784Z,235.68
2023-02-15T01:14:40.776Z,237.27
2023-02-15T01:14:50.773Z,239.05
2023-02-15T01:15:00.826Z,239.79
2023-02-15T01:15:10.777Z,240.85
2023-02-15T01:15:20.773Z,240.20
2023-02-15T01:15:30.777Z,240.25
2023-02-15T01:15:43.055Z,239.52
2023-02-15T01:15:50.804Z,239.52
2023-02-15T01:16:01.122Z,239.53
2023-02-15T01:16:10.787Z,239.54
2023-02-15T01:16:20.870Z,239.53
2023-02-15T01:16:30.798Z,239.00
2023-02-15T01:16:40.787Z,237.74
2023-02-15T01:16:50.746Z,236.93
2023-02-15T01:17:00.763Z,236.47
2023-02-15T01:17:10.762Z,235.35
2023-02-15T01:17:20.858Z,234.89
2023-02-15T01:17:30.765Z,234.02
2023-02-15T01:17:40.766Z,232.90
2023-02-15T01:17:50.747Z,232.07
2023-02-15T01:18:00.748Z,232.22
2023-02-15T01:18:10.762Z,232.99
2023-02-15T01:18:20.756Z,233.26
2023-02-15T01:18:30.755Z,233.25
2023-02-15T01:18:40.764Z,234.26
2023-02-15T01:18:50.758Z,233.10
2023-02-15T01:19:00.766Z,233.15
2023-02-15T01:19:10.753Z,232.58
2023-02-15T01:19:20.755Z,231.71
2023-02-15T01:19:30.760Z,230.92
2023-02-15T01:19:40.748Z,229.94
2023-02-15T01:19:50.766Z,229.52
2023-02-15T01:20:00.773Z,229.39
2023-02-15T01:20:10.837Z,229.36
2023-02-15T01:20:20.785Z,228.27
2023-02-15T01:20:30.779Z,228.02
2023-02-15T01:20:40.755Z,228.45
2023-02-15T01:20:50.792Z,227.12
2023-02-15T01:21:00.753Z,227.48
2023-02-15T01:21:10.772Z,227.01
2023-02-15T01:21:20.818Z,227.27
2023-02-15T01:21:30.796Z,226.72
2023-02-15T01:21:40.804Z,226.74
2023-02-15T01:21:50.822Z,225.99
2023-02-15T01:22:00.828Z,225.80
2023-02-15T01:22:10.818Z,225.18
2023-02-15T01:22:20.843Z,223.82
2023-02-15T01:22:30.845Z,223.93
2023-02-15T01:22:40.845Z,223.53
2023-02-15T01:22:50.888Z,223.33
2023-02-15T01:23:00.893Z,224.50
2023-02-15T01:23:10.887Z,225.51
2023-02-15T01:23:20.894Z,226.78
2023-02-15T01:23:30.899Z,227.92
2023-02-15T01:23:40.905Z,228.77
2023-02-15T01:23:50.930Z,229.50
2023-02-15T01:24:00.928Z,228.91
2023-02-15T01:24:10.926Z,228.82
2023-02-15T01:24:20.934Z,228.44
2023-02-15T01:24:30.939Z,227.82
2023-02-15T01:24:40.941Z,227.31
2023-02-15T01:24:50.979Z,226.67
2023-02-15T01:25:01.025Z,226.11
2023-02-15T01:25:11.039Z,226.73
2023-02-15T01:25:21.003Z,227.53
2023-02-15T01:25:30.993Z,227.82
2023-02-15T01:25:41.014Z,228.23
2023-02-15T01:25:51.020Z,227.92
2023-02-15T01:26:01.334Z,227.68
2023-02-15T01:26:11.031Z,227.04
2023-02-15T01:26:21.086Z,227.01
2023-02-15T01:26:31.015Z,225.79
2023-02-15T01:26:41.011Z,225.75
2023-02-15T01:26:51.015Z,224.40
2023-02-15T01:27:01.017Z,224.86
2023-02-15T01:27:11.016Z,225.55
2023-02-15T01:27:21.025Z,225.26
2023-02-15T01:27:31.014Z,225.43
2023-02-15T01:27:41.026Z,225.17
2023-02-15T01:27:51.027Z,224.85
2023-02-15T01:28:01.017Z,224.12
2023-02-15T01:28:11.018Z,223.56
2023-02-15T01:28:21.029Z,223.05
2023-02-15T01:28:31.016Z,223.17
2023-02-15T01:28:41.012Z,222.77
2023-02-15T01:28:51.021Z,222.50
2023-02-15T01:29:01.023Z,222.22
2023-02-15T01:29:11.008Z,222.25
2023-02-15T01:29:21.024Z,221.65
2023-02-15T01:29:31.025Z,220.40
2023-02-15T01:29:41.011Z,220.42
2023-02-15T01:29:51.022Z,220.30
2023-02-15T01:30:01.082Z,220.81
2023-02-15T01:30:11.057Z,220.53
2023-02-15T01:30:21.091Z,220.49
2023-02-15T01:30:31.018Z,220.07
2023-02-15T01:30:41.026Z,220.74
2023-02-15T01:30:51.101Z,220.62
2023-02-15T01:31:01.092Z,220.18
2023-02-15T01:31:11.135Z,220.80
2023-02-15T01:31:21.163Z,220.24
2023-02-15T01:31:31.070Z,221.17
2023-02-15T01:31:41.089Z,220.39
2023-02-15T01:31:51.131Z,220.61
2023-02-15T01:32:01.258Z,220.04
2023-02-15T01:32:11.076Z,219.05
2023-02-15T01:32:21.082Z,218.18
2023-02-15T01:32:31.080Z,218.98
2023-02-15T01:32:41.083Z,218.62
2023-02-15T01:32:51.106Z,218.41
2023-02-15T01:33:01.096Z,218.25
2023-02-15T01:33:11.100Z,217.92
2023-02-15T01:33:21.119Z,218.85
2023-02-15T01:33:31.129Z,219.36
2023-02-15T01:33:41.135Z,220.13
2023-02-15T01:33:51.145Z,220.64
2023-02-15T01:34:01.170Z,221.07
2023-02-15T01:34:11.143Z,220.75
2023-02-15T01:34:21.199Z,221.31
2023-02-15T01:34:31.177Z,220.62
2023-02-15T01:34:41.181Z,220.00
2023-02-15T01:34:51.210Z,218.89
2023-02-15T01:35:01.204Z,218.42
2023-02-15T01:35:11.212Z,217.82
2023-02-15T01:35:21.274Z,217.84
2023-02-15T01:35:31.224Z,216.81
2023-02-15T01:35:41.222Z,217.42
2023-02-15T01:35:51.261Z,216.58
2023-02-15T01:36:01.394Z,215.77
2023-02-15T01:36:11.261Z,215.02
2023-02-15T01:36:21.264Z,214.75
2023-02-15T01:36:31.270Z,213.26
2023-02-15T01:36:41.254Z,213.46
2023-02-15T01:36:51.253Z,213.41
2023-02-15T01:37:01.267Z,213.45
2023-02-15T01:37:11.258Z,213.57
2023-02-15T01:37:21.239Z,213.56
2023-02-15T01:37:31.237Z,213.42
2023-02-15T01:37:41.255Z,213.82
2023-02-15T01:37:51.262Z,213.23
2023-02-15T01:38:01.229Z,213.77
2023-02-15T01:38:11.247Z,213.12
2023-02-15T01:38:21.239Z,212.56
2023-02-15T01:38:31.243Z,212.00
2023-02-15T01:38:41.249Z,212.45
2023-02-15T01:38:51.255Z,211.33
2023-02-15T01:39:01.239Z,211.04
2023-02-15T01:39:11.256Z,210.35
2023-02-15T01:39:21.240Z,210.70
2023-02-15T01:39:31.245Z,210.60
2023-02-15T01:39:41.254Z,210.94
2023-02-15T01:39:51.253Z,210.76
2023-02-15T01:40:01.270Z,210.70
2023-02-15T01:40:11.237Z,210.16
2023-02-15T01:40:21.241Z,211.57
2023-02-15T01:40:31.275Z,211.89
2023-02-15T01:40:41.239Z,211.87
2023-02-15T01:40:51.240Z,212.32
2023-02-15T01:41:01.231Z,211.88
2023-02-15T01:41:11.237Z,211.49
2023-02-15T01:41:21.342Z,211.93
2023-02-15T01:41:31.243Z,212.13
2023-02-15T01:41:41.243Z,212.16
2023-02-15T01:41:51.239Z,212.18
2023-02-15T01:42:01.244Z,211.82
2023-02-15T01:42:11.247Z,211.73
2023-02-15T01:42:21.277Z,212.45
2023-02-15T01:42:31.256Z,212.92
2023-02-15T01:42:41.276Z,212.88
2023-02-15T01:42:51.300Z,211.70
2023-02-15T01:43:01.317Z,211.64
2023-02-15T01:43:11.299Z,210.96
2023-02-15T01:43:21.326Z,210.71
2023-02-15T01:43:31.326Z,211.06
2023-02-15T01:43:41.324Z,210.86
2023-02-15T01:43:51.345Z,210.49
2023-02-15T01:44:01.355Z,210.34
2023-02-15T01:44:11.350Z,210.64
2023-02-15T01:44:21.385Z,210.80
2023-02-15T01:44:31.348Z,211.51
2023-02-15T01:44:41.360Z,212.09
2023-02-15T01:44:51.402Z,211.69
2023-02-15T01:45:01.402Z,211.29
2023-02-15T01:45:11.395Z,210.46
2023-02-15T01:45:21.413Z,210.75
2023-02-15T01:45:31.465Z,210.23
2023-02-15T01:45:41.425Z,209.39
2023-02-15T01:45:51.441Z,209.10
2023-02-15T01:46:01.727Z,209.59
2023-02-15T01:46:11.490Z,209.38
2023-02-15T01:46:21.542Z,208.68
2023-02-15T01:46:31.446Z,209.19
2023-02-15T01:46:41.474Z,209.28
2023-02-15T01:46:51.460Z,208.07
2023-02-15T01:47:01.451Z,208.34
2023-02-15T01:47:11.424Z,208.82
2023-02-15T01:47:21.439Z,208.39
2023-02-15T01:47:31.441Z,208.96
2023-02-15T01:47:41.453Z,209.55
2023-02-15T01:47:51.440Z,210.72
2023-02-15T01:48:01.446Z,213.98
2023-02-15T01:48:11.438Z,216.51
2023-02-15T01:48:21.432Z,218.41
2023-02-15T01:48:31.445Z,219.98
2023-02-15T01:48:41.455Z,220.12
2023-02-15T01:48:51.451Z,219.69
2023-02-15T01:49:01.433Z,219.12
2023-02-15T01:49:11.454Z,218.55
2023-02-15T01:49:21.432Z,217.74
2023-02-15T01:49:31.429Z,217.71
2023-02-15T01:49:41.449Z,217.85
2023-02-15T01:49:51.444Z,217.26
2023-02-15T01:50:01.471Z,218.06
2023-02-15T01:50:11.463Z,217.78
2023-02-15T01:50:21.497Z,218.19
2023-02-15T01:50:31.538Z,218.44
2023-02-15T01:50:41.482Z,219.00
2023-02-15T01:50:51.489Z,218.99
2023-02-15T01:51:01.722Z,219.53
2023-02-15T01:51:11.519Z,219.51
2023-02-15T01:51:21.505Z,219.50
2023-02-15T01:51:31.512Z,218.20
2023-02-15T01:51:41.518Z,217.68
2023-02-15T01:51:51.502Z,216.71
2023-02-15T01:52:01.515Z,216.44
2023-02-15T01:52:11.496Z,216.31
2023-02-15T01:52:21.506Z,215.20
2023-02-15T01:52:31.519Z,214.67
2023-02-15T01:52:41.516Z,214.16
2023-02-15T01:52:51.506Z,213.20
2023-02-15T01:53:01.500Z,213.19
2023-02-15T01:53:11.515Z,213.28
2023-02-15T01:53:21.505Z,212.71
2023-02-15T01:53:31.498Z,213.19
2023-02-15T01:53:41.497Z,213.13
2023-02-15T01:54:01.510Z,213.06
2023-02-15T01:54:11.630Z,213.07
2023-02-15T01:54:21.524Z,212.28
2023-02-15T01:54:31.490Z,211.90
2023-02-15T01:54:41.495Z,211.58
2023-02-15T01:54:51.520Z,211.88
2023-02-15T01:55:01.490Z,211.12
2023-02-15T01:55:11.514Z,210.44
2023-02-15T01:55:21.500Z,210.82
2023-02-15T01:55:31.493Z,211.01
2023-02-15T01:55:41.541Z,211.25
2023-02-15T01:55:51.501Z,211.61
2023-02-15T01:56:01.662Z,211.31
2023-02-15T01:56:11.500Z,212.09
2023-02-15T01:56:21.504Z,211.92
2023-02-15T01:56:31.501Z,212.04
2023-02-15T01:56:41.512Z,211.97
2023-02-15T01:56:51.465Z,211.92
2023-02-15T01:57:01.471Z,211.77
2023-02-15T01:57:11.481Z,211.99
2023-02-15T01:57:21.469Z,212.71
2023-02-15T01:57:31.530Z,212.37
2023-02-15T01:57:41.499Z,212.67
2023-02-15T01:57:51.479Z,213.02
2023-02-15T01:58:01.479Z,212.49
2023-02-15T01:58:11.490Z,212.67
2023-02-15T01:58:21.471Z,213.21
2023-02-15T01:58:31.496Z,213.00
2023-02-15T01:58:41.509Z,213.44
2023-02-15T01:58:51.478Z,213.62
2023-02-15T01:59:01.482Z,213.94
2023-02-15T01:59:11.473Z,213.90
2023-02-15T01:59:21.487Z,214.73
2023-02-15T01:59:31.491Z,215.04
2023-02-15T01:59:41.499Z,214.93
2023-02-15T01:59:51.465Z,215.57
2023-02-15T02:00:01.480Z,215.43
2023-02-15T02:00:11.480Z,215.66
2023-02-15T02:00:21.483Z,215.32
2023-02-15T02:00:31.472Z,215.64
2023-02-15T02:00:41.472Z,216.53
2023-02-15T02:00:51.538Z,215.65
2023-02-15T02:01:01.562Z,216.70
2023-02-15T02:01:11.485Z,216.45
2023-02-15T02:01:21.526Z,217.40
2023-02-15T02:01:31.518Z,217.89
2023-02-15T02:01:41.521Z,218.04
2023-02-15T02:01:51.541Z,217.86
2023-02-15T02:02:01.491Z,218.16
2023-02-15T02:02:11.491Z,218.62
2023-02-15T02:02:21.544Z,218.92
2023-02-15T02:02:31.565Z,219.04
2023-02-15T02:02:41.609Z,219.11
2023-02-15T02:02:51.605Z,218.67
2023-02-15T02:03:01.614Z,218.16
2023-02-15T02:03:11.542Z,218.02
2023-02-15T02:03:21.575Z,217.78
2023-02-15T02:03:31.584Z,218.55
2023-02-15T02:03:41.565Z,217.87
2023-02-15T02:03:51.609Z,217.94
2023-02-15T02:04:01.605Z,218.49
2023-02-15T02:04:11.597Z,218.39
2023-02-15T02:04:21.617Z,218.34
2023-02-15T02:04:31.608Z,218.29
2023-02-15T02:04:41.635Z,219.04
2023-02-15T02:04:51.657Z,219.70